Time;durP1;ratioP1;P1;durP2;ratioP2;P2;SDS_P1;SDS_P2;PMS_P1;PMS_P2;Temp;Humidity;BMP_temperature;BMP_pressure;BME280_temperature;BME280_humidity;BME280_pressure;Samples;Min_cycle;Max_cycle;Signal;HPM_P1;HPM_P2
2023/01/29 00:01:07;;;;;;;11.50;8.25;;;2.90;62.70;;;;;;4995376;28;20041;-72
2023/01/29 00:03:34;;;;;;;12.73;8.65;;;2.90;62.70;;;;;;4994345;28;20026;-71
2023/01/29 00:06:03;;;;;;;10.25;7.45;;;2.80;62.60;;;;;;4994105;28;20506;-69
2023/01/29 00:08:29;;;;;;;10.25;7.18;;;2.80;62.60;;;;;;4996830;28;20459;-70
2023/01/29 00:11:06;;;;;;;11.18;7.65;;;2.70;62.50;;;;;;4999652;28;20061;-69
2023/01/29 00:13:35;;;;;;;9.77;7.20;;;2.80;62.50;;;;;;4993340;28;20076;-70
2023/01/29 00:16:02;;;;;;;9.18;7.05;;;2.70;62.50;;;;;;5009426;28;20368;-69
2023/01/29 00:18:28;;;;;;;9.80;6.72;;;2.70;62.50;;;;;;5013566;28;20084;-69
2023/01/29 00:20:55;;;;;;;8.85;6.80;;;2.70;62.50;;;;;;5013675;28;20091;-69
2023/01/29 00:23:20;;;;;;;9.18;6.40;;;2.60;62.40;;;;;;5012131;28;20463;-70
2023/01/29 00:25:47;;;;;;;8.48;6.82;;;2.60;62.50;;;;;;5007624;28;20037;-69
2023/01/29 00:28:13;;;;;;;9.88;6.97;;;2.60;62.30;;;;;;4993860;28;20049;-70
2023/01/29 00:30:39;;;;;;;7.90;6.03;;;2.60;62.30;;;;;;4993844;28;20048;-70
2023/01/29 00:33:05;;;;;;;9.77;6.53;;;2.60;62.20;;;;;;4993680;28;20452;-69
2023/01/29 00:35:31;;;;;;;8.68;6.43;;;2.60;62.30;;;;;;4993848;28;20025;-69
2023/01/29 00:37:57;;;;;;;9.05;6.60;;;2.60;62.30;;;;;;4992457;28;20081;-69
2023/01/29 00:40:24;;;;;;;7.90;6.10;;;2.50;62.30;;;;;;4994322;28;20030;-69
2023/01/29 00:45:35;;;;;;;9.57;6.97;;;2.50;62.30;;;;;;4994405;28;20529;-70
2023/01/29 00:48:04;;;;;;;8.60;6.35;;;2.50;62.20;;;;;;4994079;28;20033;-70
2023/01/29 00:50:31;;;;;;;9.00;6.60;;;2.50;62.20;;;;;;4992506;28;20427;-70
2023/01/29 00:52:56;;;;;;;9.70;6.63;;;2.50;62.20;;;;;;4994743;28;20112;-70
2023/01/29 00:55:22;;;;;;;9.52;6.68;;;2.40;62.20;;;;;;5013523;28;20065;-70
2023/01/29 00:57:48;;;;;;;8.63;6.93;;;2.40;62.10;;;;;;5014189;28;20502;-71
2023/01/29 01:00:17;;;;;;;10.48;6.93;;;2.40;62.10;;;;;;5015910;28;20092;-72
2023/01/29 01:05:27;;;;;;;8.98;7.18;;;2.40;62.10;;;;;;5016363;28;20076;-72
2023/01/29 01:07:55;;;;;;;12.38;7.10;;;2.40;62.10;;;;;;5015703;28;20029;-72
2023/01/29 01:10:27;;;;;;;9.98;6.82;;;2.30;62.10;;;;;;5015770;28;20038;-72
2023/01/29 01:13:11;;;;;;;8.75;6.22;;;2.30;62.30;;;;;;5015116;28;20053;-72
2023/01/29 01:15:38;;;;;;;9.75;6.72;;;2.30;62.20;;;;;;4997200;28;20037;-73
2023/01/29 01:18:05;;;;;;;9.68;7.05;;;2.30;62.30;;;;;;4997232;28;20117;-72
2023/01/29 01:20:34;;;;;;;12.73;7.47;;;2.30;62.30;;;;;;4997265;28;20114;-72
2023/01/29 01:22:59;;;;;;;9.20;6.60;;;2.30;62.30;;;;;;5013770;28;20060;-71
2023/01/29 01:25:26;;;;;;;10.85;7.35;;;2.30;62.30;;;;;;5002863;28;20051;-70
2023/01/29 01:27:53;;;;;;;10.35;7.30;;;2.20;62.30;;;;;;4996802;28;20064;-71
2023/01/29 01:30:19;;;;;;;8.52;6.68;;;2.20;62.30;;;;;;4996749;28;20034;-70
2023/01/29 01:32:45;;;;;;;9.30;6.93;;;2.20;62.20;;;;;;4996567;28;20038;-71
2023/01/29 01:35:13;;;;;;;13.15;7.88;;;2.20;62.20;;;;;;5015016;28;20034;-71
2023/01/29 01:37:39;;;;;;;11.15;7.32;;;2.20;62.00;;;;;;5015050;28;20034;-70
2023/01/29 01:40:16;;;;;;;10.00;6.60;;;2.20;62.10;;;;;;5014982;28;20036;-71
2023/01/29 01:42:43;;;;;;;9.52;6.35;;;2.20;62.20;;;;;;5016102;28;20029;-70
2023/01/29 01:45:34;;;;;;;10.55;7.10;;;2.20;62.20;;;;;;5002085;28;20041;-71
2023/01/29 01:48:11;;;;;;;8.65;6.15;;;2.20;62.20;;;;;;5015050;28;20056;-70
2023/01/29 01:51:02;;;;;;;9.32;6.70;;;2.20;62.20;;;;;;5016078;28;20026;-70
2023/01/29 01:53:40;;;;;;;9.00;6.50;;;2.20;62.20;;;;;;5010145;28;20133;-70
2023/01/29 01:56:10;;;;;;;8.82;6.43;;;2.20;62.20;;;;;;4996493;28;20038;-70
2023/01/29 01:58:49;;;;;;;10.55;7.13;;;2.10;62.20;;;;;;4996389;28;20026;-70
2023/01/29 02:01:16;;;;;;;10.25;7.10;;;2.10;62.20;;;;;;4995243;28;20040;-69
2023/01/29 02:09:37;;;;;;;9.95;7.50;;;2.10;62.20;;;;;;4996187;28;20038;-69
2023/01/29 02:12:05;;;;;;;9.95;7.25;;;2.20;62.10;;;;;;4995794;28;20065;-70
2023/01/29 02:14:33;;;;;;;9.45;6.80;;;2.20;62.00;;;;;;5009332;28;20041;-70
2023/01/29 02:17:01;;;;;;;9.13;6.50;;;2.20;62.00;;;;;;5015655;28;20065;-71
2023/01/29 02:20:04;;;;;;;8.50;6.30;;;2.10;62.00;;;;;;5014239;28;20472;-70
2023/01/29 02:23:01;;;;;;;7.53;5.90;;;2.10;62.00;;;;;;5009651;28;20049;-70
2023/01/29 02:26:17;;;;;;;9.07;6.50;;;2.10;61.90;;;;;;4994610;28;20031;-70
2023/01/29 02:29:32;;;;;;;10.00;7.38;;;2.10;61.90;;;;;;4954924;29;20046;-69
2023/01/29 02:32:25;;;;;;;8.23;6.32;;;2.10;61.80;;;;;;5006124;28;20060;-70
2023/01/29 02:38:18;;;;;;;9.25;6.75;;;2.10;61.90;;;;;;4995717;28;20037;-71
2023/01/29 02:40:51;;;;;;;8.80;6.40;;;2.10;61.80;;;;;;4995495;28;20030;-70
2023/01/29 02:43:28;;;;;;;9.52;6.68;;;2.10;61.90;;;;;;5008747;28;20037;-70
2023/01/29 02:46:12;;;;;;;9.95;6.55;;;2.10;61.90;;;;;;4995472;28;20529;-71
2023/01/29 02:49:12;;;;;;;9.48;7.10;;;2.10;61.90;;;;;;4994402;28;20100;-71
2023/01/29 02:52:26;;;;;;;7.57;5.72;;;2.10;61.80;;;;;;5006709;28;20042;-70
2023/01/29 02:55:07;;;;;;;8.18;5.80;;;2.10;61.80;;;;;;4954058;29;20027;-70
2023/01/29 02:57:38;;;;;;;10.05;6.05;;;2.10;61.80;;;;;;4938229;29;20061;-69
2023/01/29 03:00:10;;;;;;;9.38;6.50;;;2.10;61.80;;;;;;4996014;28;20034;-69
2023/01/29 03:02:50;;;;;;;9.73;6.97;;;2.10;61.80;;;;;;4994084;28;20448;-70
2023/01/29 03:05:42;;;;;;;9.00;6.60;;;2.10;61.80;;;;;;4995266;28;20517;-70
2023/01/29 03:08:10;;;;;;;9.10;6.35;;;2.10;61.80;;;;;;4994734;28;20460;-70
2023/01/29 03:10:42;;;;;;;8.75;6.28;;;2.10;61.80;;;;;;5002241;28;20052;-70
2023/01/29 03:13:26;;;;;;;7.70;5.80;;;2.10;61.80;;;;;;5014802;28;20046;-71
2023/01/29 03:16:01;;;;;;;7.95;5.82;;;2.10;61.80;;;;;;5014701;28;20029;-71
2023/01/29 03:18:39;;;;;;;8.52;6.60;;;2.10;61.90;;;;;;5012840;28;20022;-70
2023/01/29 03:21:49;;;;;;;9.52;6.50;;;2.10;61.90;;;;;;5004777;28;20034;-70
2023/01/29 03:32:16;;;;;;;8.85;6.10;;;2.10;61.70;;;;;;4994629;28;20507;-69
2023/01/29 03:34:50;;;;;;;7.18;5.45;;;2.10;61.70;;;;;;5009258;28;20563;-69
2023/01/29 03:37:38;;;;;;;8.52;6.18;;;2.10;61.70;;;;;;5013107;28;20038;-70
2023/01/29 03:40:05;;;;;;;8.10;6.30;;;2.10;61.70;;;;;;4994873;28;20036;-69
2023/01/29 03:43:05;;;;;;;7.50;6.10;;;2.10;61.70;;;;;;4994714;28;20018;-69
2023/01/29 03:45:51;;;;;;;7.70;5.88;;;2.10;61.60;;;;;;4994434;28;20026;-69
2023/01/29 03:48:32;;;;;;;7.25;5.60;;;2.10;61.70;;;;;;4994923;28;20054;-68
2023/01/29 03:51:19;;;;;;;7.05;5.72;;;2.20;61.60;;;;;;5003546;28;20120;-69
2023/01/29 03:54:00;;;;;;;6.85;5.28;;;2.20;61.70;;;;;;5009385;28;20026;-69
2023/01/29 03:56:44;;;;;;;7.03;5.38;;;2.20;61.70;;;;;;4994238;28;20484;-69
2023/01/29 03:59:28;;;;;;;5.18;4.28;;;2.20;61.70;;;;;;4994476;28;20105;-69
2023/01/29 04:02:26;;;;;;;7.67;5.77;;;2.20;61.60;;;;;;5010133;28;20057;-69
2023/01/29 04:04:58;;;;;;;6.20;4.97;;;2.20;61.50;;;;;;4993547;28;20038;-70
2023/01/29 04:07:25;;;;;;;7.70;6.18;;;2.20;61.50;;;;;;5008033;28;20084;-70
2023/01/29 04:10:06;;;;;;;6.80;5.20;;;2.20;62.10;;;;;;5013779;28;20375;-70
2023/01/29 04:12:48;;;;;;;7.30;5.85;;;2.20;61.40;;;;;;4999084;28;20057;-70
2023/01/29 04:15:15;;;;;;;7.22;5.75;;;2.20;61.40;;;;;;5013885;28;20022;-69
2023/01/29 04:17:47;;;;;;;6.43;4.88;;;2.20;61.40;;;;;;5013738;28;20348;-70
2023/01/29 04:20:13;;;;;;;7.65;5.80;;;2.20;61.40;;;;;;5007281;28;20031;-71
2023/01/29 04:22:43;;;;;;;6.72;5.22;;;2.20;61.40;;;;;;5007993;28;20042;-70
2023/01/29 04:25:27;;;;;;;7.45;5.55;;;2.20;61.40;;;;;;4992624;28;20070;-70
2023/01/29 04:27:56;;;;;;;7.85;5.65;;;2.20;61.40;;;;;;4998614;28;20038;-72
2023/01/29 04:30:46;;;;;;;7.53;5.75;;;2.20;61.40;;;;;;5013368;28;20034;-71
2023/01/29 04:33:30;;;;;;;8.77;5.82;;;2.20;61.40;;;;;;5007906;28;20030;-70
2023/01/29 04:36:00;;;;;;;8.65;6.43;;;2.20;61.40;;;;;;4997873;28;20065;-69
2023/01/29 04:38:46;;;;;;;7.90;6.82;;;2.20;61.40;;;;;;4998176;28;20023;-70
2023/01/29 04:41:21;;;;;;;8.52;6.10;;;2.20;61.40;;;;;;4997726;28;20038;-70
2023/01/29 04:43:52;;;;;;;7.88;6.25;;;2.20;61.40;;;;;;5009889;28;20030;-69
2023/01/29 04:46:26;;;;;;;8.27;5.53;;;2.20;61.30;;;;;;5017667;28;20049;-69
2023/01/29 04:49:10;;;;;;;7.50;5.63;;;2.20;61.40;;;;;;5017791;28;20113;-69
2023/01/29 04:51:42;;;;;;;6.68;5.53;;;2.20;61.40;;;;;;5017175;28;20042;-67
2023/01/29 04:54:15;;;;;;;8.27;5.93;;;2.20;61.40;;;;;;5001476;28;20026;-66
2023/01/29 04:56:51;;;;;;;6.25;4.90;;;2.20;61.40;;;;;;5002688;28;20164;-69
2023/01/29 04:59:22;;;;;;;28.17;20.98;;;2.20;61.40;;;;;;5014216;28;20037;-70
2023/01/29 05:01:48;;;;;;;48.90;33.35;;;2.20;61.20;;;;;;4997740;28;20034;-67
2023/01/29 05:04:17;;;;;;;29.52;19.92;;;2.10;61.00;;;;;;4997285;28;20460;-70
2023/01/29 05:06:45;;;;;;;20.35;13.77;;;2.00;61.00;;;;;;4995834;28;20022;-68
2023/01/29 05:09:13;;;;;;;16.10;10.60;;;1.90;60.90;;;;;;4997872;28;20431;-68
2023/01/29 05:11:40;;;;;;;44.47;28.15;;;1.80;61.00;;;;;;5015426;28;20419;-68
2023/01/29 05:14:10;;;;;;;56.22;38.58;;;1.70;61.50;;;;;;5016765;28;20062;-68
2023/01/29 05:16:44;;;;;;;23.38;15.90;;;1.60;61.60;;;;;;4998875;28;20022;-68
2023/01/29 05:19:15;;;;;;;18.38;12.02;;;1.50;61.70;;;;;;4996657;28;20081;-69
2023/01/29 05:21:44;;;;;;;49.13;31.58;;;1.50;62.00;;;;;;4998590;28;20492;-69
2023/01/29 05:24:16;;;;;;;39.63;25.38;;;1.40;62.10;;;;;;4999845;28;20033;-69
2023/01/29 05:29:27;;;;;;;22.08;14.93;;;1.40;62.50;;;;;;5013077;28;20030;-69
2023/01/29 05:31:53;;;;;;;19.40;13.18;;;1.50;62.50;;;;;;4996793;28;20035;-68
2023/01/29 05:34:19;;;;;;;35.78;22.65;;;1.50;62.50;;;;;;4996869;28;20034;-69
2023/01/29 05:36:44;;;;;;;63.67;43.20;;;1.50;62.80;;;;;;4996762;28;20030;-68
2023/01/29 05:39:10;;;;;;;36.83;24.35;;;1.50;62.40;;;;;;4995646;28;20526;-75
2023/01/29 05:41:36;;;;;;;23.20;15.90;;;1.50;62.40;;;;;;5015154;28;20172;-75
2023/01/29 05:44:01;;;;;;;38.13;23.92;;;1.40;62.20;;;;;;5015485;28;20069;-74
2023/01/29 05:46:27;;;;;;;60.22;35.42;;;1.30;62.50;;;;;;5016087;28;20168;-68
2023/01/29 05:48:53;;;;;;;55.30;34.40;;;1.30;62.70;;;;;;5016067;28;20022;-75
2023/01/29 05:51:18;;;;;;;40.53;26.52;;;1.30;62.80;;;;;;4998331;28;20038;-78
2023/01/29 05:53:44;;;;;;;29.17;19.58;;;1.30;63.10;;;;;;4996926;28;20034;-86
2023/01/29 05:56:09;;;;;;;62.50;43.13;;;1.30;63.10;;;;;;4996460;28;20085;-75
2023/01/29 05:58:36;;;;;;;86.65;58.35;;;1.40;63.30;;;;;;4996569;28;20027;-69
2023/01/29 06:01:19;;;;;;;31.50;21.23;;;1.40;63.00;;;;;;5007919;28;20030;-81
2023/01/29 06:03:45;;;;;;;21.70;13.80;;;1.40;63.00;;;;;;5014252;28;20426;-83
2023/01/29 06:06:11;;;;;;;18.17;12.07;;;1.40;62.90;;;;;;5015990;28;20030;-71
2023/01/29 06:08:37;;;;;;;15.82;10.20;;;1.30;62.80;;;;;;5015743;28;20365;-72
2023/01/29 08:13:17;;;;;;;11.70;9.07;;;1.20;63.90;;;;;;5083629;27;20456;-81
2023/01/29 14:15:39;;;;;;;9.48;6.32;;;2.60;58.70;;;;;;5071134;28;20411;-74
2023/01/29 14:18:18;;;;;;;8.15;5.80;;;2.60;59.10;;;;;;5069848;28;20181;-74
2023/01/29 14:20:46;;;;;;;5.85;4.97;;;2.50;59.80;;;;;;5070843;28;20025;-74
2023/01/29 14:23:21;;;;;;;8.50;5.65;;;2.60;60.40;;;;;;5070795;28;20028;-75
2023/01/29 14:25:47;;;;;;;9.15;6.93;;;2.60;60.80;;;;;;5069342;28;20025;-74
2023/01/29 14:28:27;;;;;;;8.18;6.07;;;2.70;61.00;;;;;;5069228;28;20519;-74
2023/01/29 14:30:54;;;;;;;7.63;6.13;;;2.80;61.30;;;;;;5069362;28;20482;-76
2023/01/29 14:33:35;;;;;;;8.48;6.20;;;2.80;61.30;;;;;;5069483;28;20033;-74
2023/01/29 14:36:22;;;;;;;8.07;6.22;;;2.90;61.40;;;;;;5069403;28;20381;-74
2023/01/29 14:38:49;;;;;;;8.40;6.30;;;2.90;61.30;;;;;;5070753;28;20021;-74
2023/01/29 14:41:34;;;;;;;10.00;6.60;;;3.00;61.40;;;;;;5070443;28;20024;-74
2023/01/29 14:44:37;;;;;;;7.95;6.30;;;3.10;61.50;;;;;;5069119;28;20442;-74
2023/01/29 14:47:03;;;;;;;8.38;6.00;;;3.20;61.50;;;;;;5070359;28;20459;-74
2023/01/29 14:49:55;;;;;;;8.18;6.03;;;3.20;61.60;;;;;;5069368;28;20031;-74
2023/01/29 14:52:38;;;;;;;8.90;6.38;;;3.20;61.60;;;;;;5070284;28;20032;-74
2023/01/29 14:55:12;;;;;;;8.93;6.70;;;3.20;61.70;;;;;;5070521;28;20450;-74
2023/01/29 14:57:37;;;;;;;9.20;7.35;;;3.30;61.70;;;;;;5070526;28;20104;-73
2023/01/29 15:00:11;;;;;;;8.88;6.65;;;3.20;61.70;;;;;;5052341;28;20048;-74
2023/01/29 15:02:40;;;;;;;10.93;7.53;;;3.30;61.80;;;;;;5068896;28;20029;-74
2023/01/29 15:05:19;;;;;;;10.55;7.35;;;3.30;61.80;;;;;;5068809;28;20114;-74
2023/01/29 15:07:55;;;;;;;9.75;7.43;;;3.30;61.90;;;;;;5069195;28;20477;-74
2023/01/29 15:10:27;;;;;;;9.00;6.85;;;3.30;61.90;;;;;;5070176;28;20025;-74
2023/01/29 15:12:53;;;;;;;10.00;6.38;;;3.30;62.00;;;;;;5070017;28;20043;-74
2023/01/29 15:15:45;;;;;;;10.27;7.95;;;3.30;62.00;;;;;;5067940;28;20053;-74
2023/01/29 15:18:30;;;;;;;11.68;6.90;;;3.30;62.00;;;;;;5068770;28;20166;-74
2023/01/29 15:21:02;;;;;;;;;;;3.30;62.60;;;;;;5069127;28;20470;-74
2023/01/29 15:23:33;;;;;;;11.65;7.30;;;3.30;61.80;;;;;;5069247;28;20421;-74
2023/01/29 15:26:02;;;;;;;10.10;7.50;;;3.30;62.00;;;;;;5061213;28;20021;-74
2023/01/29 15:28:33;;;;;;;11.65;7.47;;;3.30;62.00;;;;;;5056163;28;20094;-74
2023/01/29 15:31:02;;;;;;;14.70;7.38;;;3.30;62.00;;;;;;5054566;28;20036;-74
2023/01/29 15:33:30;;;;;;;9.75;7.10;;;3.30;62.00;;;;;;5054517;28;20471;-74
2023/01/29 15:36:01;;;;;;;10.90;7.72;;;3.30;62.00;;;;;;5055747;28;20020;-75
2023/01/29 15:38:28;;;;;;;9.93;7.28;;;3.30;62.10;;;;;;5055623;28;20033;-73
2023/01/29 15:40:56;;;;;;;12.63;7.18;;;3.30;62.20;;;;;;5056024;28;20067;-73
2023/01/29 15:43:26;;;;;;;11.13;6.95;;;3.30;62.20;;;;;;5055751;28;20025;-74
2023/01/29 15:46:09;;;;;;;10.82;7.40;;;3.30;62.20;;;;;;5055757;28;20374;-75
2023/01/29 15:48:41;;;;;;;9.15;6.55;;;3.30;62.30;;;;;;5054464;28;20032;-74
2023/01/29 15:51:17;;;;;;;8.65;6.47;;;3.30;62.40;;;;;;5055580;28;20029;-75
2023/01/29 15:54:04;;;;;;;9.63;6.68;;;3.30;62.50;;;;;;5055403;28;20468;-73
2023/01/29 15:56:46;;;;;;;9.13;6.28;;;3.30;62.40;;;;;;5055447;28;20421;-75
2023/01/29 15:59:28;;;;;;;8.93;6.53;;;3.30;62.40;;;;;;5055601;28;20025;-74
2023/01/29 16:01:53;;;;;;;8.32;6.28;;;3.30;62.40;;;;;;5055898;28;20028;-74
2023/01/29 16:04:29;;;;;;;10.02;7.47;;;3.30;62.40;;;;;;5054382;28;20033;-74
2023/01/29 16:06:56;;;;;;;9.98;6.93;;;3.30;62.40;;;;;;5054021;28;20192;-73
2023/01/29 16:09:24;;;;;;;9.73;6.53;;;3.30;62.40;;;;;;5054171;28;20031;-74
2023/01/29 16:11:51;;;;;;;10.43;7.07;;;3.30;62.40;;;;;;5055044;28;20033;-74
2023/01/29 16:14:21;;;;;;;10.82;7.75;;;3.30;62.50;;;;;;5053543;28;20061;-73
2023/01/29 16:16:48;;;;;;;11.88;8.20;;;3.30;62.50;;;;;;5053820;28;20029;-75
2023/01/29 16:19:27;;;;;;;10.45;7.47;;;3.30;62.50;;;;;;5055309;28;20048;-74
2023/01/29 16:22:00;;;;;;;10.02;7.13;;;3.30;62.50;;;;;;5055333;28;20477;-74
2023/01/29 16:24:28;;;;;;;10.82;7.50;;;3.30;62.60;;;;;;5053544;28;20029;-74
2023/01/29 16:27:06;;;;;;;10.15;6.72;;;3.30;62.60;;;;;;5055323;28;20071;-74
2023/01/29 16:29:33;;;;;;;11.32;7.50;;;3.30;62.60;;;;;;5053661;28;20027;-74
2023/01/29 16:32:01;;;;;;;10.98;7.43;;;3.30;62.70;;;;;;5053432;28;20025;-74
2023/01/29 16:34:39;;;;;;;12.07;8.05;;;3.30;62.70;;;;;;5053580;28;20055;-74
2023/01/29 16:37:27;;;;;;;10.73;8.27;;;3.20;62.70;;;;;;5054032;28;20029;-74
2023/01/29 16:39:53;;;;;;;10.20;7.03;;;3.20;62.80;;;;;;5053693;28;20513;-74
2023/01/29 16:42:22;;;;;;;10.48;7.38;;;3.20;62.90;;;;;;5054588;28;20060;-74
2023/01/29 16:44:59;;;;;;;11.80;8.27;;;3.20;62.90;;;;;;5054672;28;20028;-74
2023/01/29 16:47:35;;;;;;;11.55;7.93;;;3.20;63.20;;;;;;5055099;28;20029;-75
2023/01/29 16:50:34;;;;;;;10.27;7.28;;;3.20;62.90;;;;;;5054854;28;20459;-75
2023/01/29 16:53:20;;;;;;;12.40;8.20;;;3.20;62.90;;;;;;5051572;28;20048;-73
2023/01/29 16:55:48;;;;;;;12.30;8.15;;;3.20;62.90;;;;;;5054104;28;20060;-73
2023/01/29 16:58:24;;;;;;;11.70;7.72;;;3.20;63.00;;;;;;5054948;28;20104;-74
2023/01/29 17:00:56;;;;;;;8.35;6.22;;;3.20;63.00;;;;;;5054333;28;20059;-74
2023/01/29 17:03:25;;;;;;;10.02;7.20;;;3.20;63.10;;;;;;5053214;28;20025;-74
2023/01/29 17:05:51;;;;;;;10.05;7.32;;;3.20;63.10;;;;;;5054159;28;20029;-74
2023/01/29 17:08:29;;;;;;;10.80;7.38;;;3.20;63.10;;;;;;5053178;28;20024;-74
2023/01/29 17:10:55;;;;;;;8.88;6.68;;;3.20;63.10;;;;;;5054439;28;20025;-73
2023/01/29 17:13:41;;;;;;;10.98;7.47;;;3.20;63.10;;;;;;5052415;28;20029;-74
2023/01/29 17:16:30;;;;;;;10.82;7.50;;;3.20;63.10;;;;;;5054493;28;20036;-74
2023/01/29 17:18:57;;;;;;;7.80;6.13;;;3.30;63.70;;;;;;5054202;28;20083;-74
2023/01/29 17:21:23;;;;;;;12.45;7.15;;;3.30;63.20;;;;;;5053312;28;20036;-74
2023/01/29 17:23:49;;;;;;;8.48;6.20;;;3.20;63.10;;;;;;5054025;28;20039;-74
2023/01/29 17:26:15;;;;;;;8.25;6.30;;;3.30;63.20;;;;;;5054063;28;20029;-75
2023/01/29 17:28:41;;;;;;;8.40;6.57;;;3.30;63.30;;;;;;5052634;28;20025;-74
2023/01/29 17:31:07;;;;;;;8.85;6.57;;;3.30;63.30;;;;;;5052640;28;20033;-74
2023/01/29 17:33:36;;;;;;;10.27;6.82;;;3.30;63.20;;;;;;5053912;28;20360;-74
2023/01/29 17:36:02;;;;;;;8.60;6.38;;;3.30;63.20;;;;;;5053901;28;20064;-74
2023/01/29 17:38:28;;;;;;;9.55;6.82;;;3.30;63.20;;;;;;5054132;28;20057;-75
2023/01/29 17:41:05;;;;;;;10.07;6.32;;;3.30;63.20;;;;;;5052574;28;20052;-71
2023/01/29 17:43:31;;;;;;;8.77;6.20;;;3.30;63.70;;;;;;5051989;28;20025;-71
2023/01/29 17:45:56;;;;;;;7.68;5.43;;;3.30;65.00;;;;;;5052748;28;20036;-75
2023/01/29 17:48:24;;;;;;;7.82;5.85;;;3.40;65.60;;;;;;5053514;28;20087;-75
2023/01/29 20:11:39;;;;;;;5.78;5.18;;;2.70;63.90;;;;;;5179851;22;1440116;-67
2023/01/29 20:14:04;;;;;;;6.63;5.40;;;2.70;63.40;;;;;;5112701;28;20035;-71
2023/01/29 20:16:30;;;;;;;6.32;5.30;;;2.70;64.10;;;;;;5124699;28;20023;-71
2023/01/29 20:18:55;;;;;;;7.93;5.53;;;2.80;64.70;;;;;;5100297;28;20355;-70
2023/01/29 20:21:21;;;;;;;7.03;5.10;;;2.80;65.00;;;;;;5080522;28;20035;-70
2023/01/29 20:23:50;;;;;;;6.97;5.40;;;2.90;65.30;;;;;;5088379;28;20088;-70
2023/01/29 20:26:17;;;;;;;7.35;5.38;;;3.00;65.50;;;;;;5098488;28;20058;-72
2023/01/29 20:28:46;;;;;;;6.63;5.28;;;3.10;65.60;;;;;;5071892;28;20469;-72
2023/01/29 20:31:12;;;;;;;7.40;5.18;;;3.20;65.60;;;;;;5089641;28;20036;-71
2023/01/29 20:33:39;;;;;;;6.68;5.15;;;3.20;65.60;;;;;;5079867;28;20045;-69
2023/01/29 20:36:07;;;;;;;7.53;5.40;;;3.30;65.60;;;;;;5081452;28;20423;-72
2023/01/29 20:38:33;;;;;;;7.28;5.38;;;3.40;65.60;;;;;;5098502;28;20084;-72
2023/01/29 20:41:04;;;;;;;7.45;5.13;;;3.40;65.50;;;;;;5092991;28;20430;-67
2023/01/29 20:43:30;;;;;;;6.60;4.72;;;3.50;65.50;;;;;;5090202;28;20028;-71
2023/01/29 20:45:59;;;;;;;7.25;4.93;;;3.60;67.20;;;;;;5089718;28;20069;-71
2023/01/29 20:48:25;;;;;;;6.90;5.05;;;3.70;67.20;;;;;;5071371;28;20028;-72
2023/01/29 20:50:51;;;;;;;6.38;4.68;;;3.80;66.90;;;;;;5072049;28;20032;-70
2023/01/29 20:53:16;;;;;;;6.00;4.68;;;3.90;66.80;;;;;;5076961;28;20028;-71
2023/01/29 20:55:44;;;;;;;6.63;4.90;;;4.00;66.80;;;;;;5086204;28;20028;-70
2023/01/29 20:58:09;;;;;;;5.90;4.53;;;4.00;66.70;;;;;;5092555;28;20483;-71
2023/01/29 21:00:36;;;;;;;7.57;5.15;;;4.10;66.60;;;;;;5092394;28;20032;-73
2023/01/29 21:03:01;;;;;;;6.25;4.68;;;4.10;66.60;;;;;;5110533;28;20073;-75
2023/01/29 21:05:27;;;;;;;7.43;4.78;;;4.10;66.50;;;;;;5110969;28;20036;-70
2023/01/29 21:07:53;;;;;;;6.47;4.82;;;4.10;66.50;;;;;;5110352;28;20057;-70
2023/01/29 21:10:18;;;;;;;6.18;4.50;;;4.10;66.30;;;;;;5092364;28;20404;-70
2023/01/29 21:12:44;;;;;;;5.95;4.65;;;4.20;66.30;;;;;;5109496;28;20024;-69
2023/01/29 21:15:10;;;;;;;6.15;4.60;;;4.20;66.30;;;;;;5110446;28;20016;-73
2023/01/29 21:17:35;;;;;;;5.75;4.78;;;4.20;66.80;;;;;;5108806;28;20043;-71
2023/01/29 21:20:03;;;;;;;6.20;4.80;;;4.20;66.20;;;;;;5110124;28;20465;-70
2023/01/29 21:22:29;;;;;;;6.55;4.70;;;4.20;66.10;;;;;;5097041;28;20549;-72
2023/01/29 21:24:56;;;;;;;6.45;4.45;;;4.20;66.00;;;;;;5078187;28;20031;-71
2023/01/29 21:27:24;;;;;;;6.40;5.00;;;4.20;66.00;;;;;;5076414;28;20488;-72
2023/01/29 21:29:49;;;;;;;6.22;5.00;;;4.20;65.90;;;;;;5076379;28;20119;-72
2023/01/29 21:32:17;;;;;;;6.75;4.85;;;4.20;65.90;;;;;;5076237;28;20028;-70
2023/01/29 21:34:42;;;;;;;6.15;4.50;;;4.20;65.90;;;;;;5075055;28;20052;-70
2023/01/29 21:37:08;;;;;;;6.38;4.55;;;4.30;65.90;;;;;;5076456;28;20462;-70
2023/01/29 21:39:34;;;;;;;7.43;5.05;;;4.20;65.70;;;;;;5076382;28;20032;-70
2023/01/29 21:44:44;;;;;;;5.50;4.50;;;4.20;65.70;;;;;;5076153;28;20090;-71
2023/01/29 21:47:12;;;;;;;6.28;4.60;;;4.30;65.60;;;;;;5074858;28;20059;-69
2023/01/29 21:49:40;;;;;;;6.00;4.63;;;4.30;65.60;;;;;;5075545;28;20454;-70
2023/01/29 21:52:06;;;;;;;5.97;4.57;;;4.30;65.60;;;;;;5076008;28;20036;-71
2023/01/29 21:54:34;;;;;;;6.13;4.60;;;4.30;65.50;;;;;;5076023;28;20034;-69
2023/01/29 21:57:03;;;;;;;6.28;4.60;;;4.20;65.50;;;;;;5074613;28;20024;-71
2023/01/29 21:59:32;;;;;;;7.80;4.80;;;4.20;65.50;;;;;;5075626;28;20112;-70
2023/01/29 22:01:58;;;;;;;5.65;4.65;;;4.30;65.40;;;;;;5075432;28;20024;-72
2023/01/29 22:04:24;;;;;;;6.68;4.90;;;4.20;65.30;;;;;;5075558;28;20053;-70
2023/01/29 22:06:50;;;;;;;7.28;5.20;;;4.30;65.40;;;;;;5074536;28;20453;-70
2023/01/29 22:09:16;;;;;;;6.47;5.07;;;4.30;65.40;;;;;;5075209;28;20031;-70
2023/01/29 22:11:42;;;;;;;6.75;4.82;;;4.30;65.30;;;;;;5075330;28;20465;-71
2023/01/29 22:14:08;;;;;;;6.05;4.75;;;4.30;65.30;;;;;;5075360;28;20031;-71
2023/01/29 22:16:33;;;;;;;5.75;4.35;;;4.30;65.30;;;;;;5074259;28;20036;-70
2023/01/29 22:18:59;;;;;;;6.70;4.68;;;4.30;65.20;;;;;;5074154;28;20111;-70
2023/01/29 22:21:25;;;;;;;6.55;4.60;;;4.30;65.20;;;;;;5073930;28;20085;-70
2023/01/29 22:23:50;;;;;;;6.90;5.05;;;4.30;65.20;;;;;;5075448;28;20454;-71
2023/01/29 22:26:17;;;;;;;6.47;4.82;;;4.30;65.20;;;;;;5075117;28;20024;-72
2023/01/29 22:28:42;;;;;;;6.95;4.97;;;4.30;65.20;;;;;;5075396;28;20099;-70
2023/01/29 22:31:09;;;;;;;6.78;5.00;;;4.30;65.10;;;;;;5073957;28;20165;-72
2023/01/29 22:33:34;;;;;;;5.75;4.82;;;4.30;65.10;;;;;;5074437;28;20052;-71
2023/01/29 22:36:00;;;;;;;6.40;4.97;;;4.30;65.10;;;;;;5073905;28;20428;-70
2023/01/29 22:38:26;;;;;;;6.18;4.80;;;4.30;65.00;;;;;;5073985;28;20106;-70
2023/01/29 22:40:53;;;;;;;6.22;4.80;;;4.30;65.00;;;;;;5074670;28;20056;-69
2023/01/29 22:43:19;;;;;;;6.10;4.60;;;4.30;65.00;;;;;;5073371;28;20461;-70
2023/01/29 22:45:45;;;;;;;6.20;5.00;;;4.30;65.00;;;;;;5090952;28;20105;-69
2023/01/29 22:48:12;;;;;;;6.60;4.80;;;4.30;65.00;;;;;;5073603;28;20570;-71
2023/01/29 22:50:38;;;;;;;6.30;5.15;;;4.30;65.00;;;;;;5073441;28;20032;-70
2023/01/29 22:53:04;;;;;;;7.13;5.28;;;4.30;64.90;;;;;;5073406;28;20027;-69
2023/01/29 22:55:30;;;;;;;6.95;4.80;;;4.30;64.90;;;;;;5090344;28;20108;-69
2023/01/29 22:57:56;;;;;;;6.80;5.30;;;4.30;64.90;;;;;;5074985;28;20466;-70
2023/01/29 23:00:21;;;;;;;6.50;5.15;;;4.30;64.80;;;;;;5074775;28;20381;-69
2023/01/29 23:02:48;;;;;;;7.60;5.25;;;4.30;64.80;;;;;;5074911;28;20453;-72
2023/01/29 23:05:14;;;;;;;6.80;4.85;;;4.30;64.90;;;;;;5074620;28;20480;-69
2023/01/29 23:07:40;;;;;;;6.95;5.25;;;4.30;64.80;;;;;;5073037;28;20119;-70
2023/01/29 23:10:06;;;;;;;6.57;5.25;;;4.30;64.80;;;;;;5074136;28;20124;-71
2023/01/29 23:12:32;;;;;;;7.15;5.45;;;4.30;64.80;;;;;;5073580;28;20497;-71
2023/01/29 23:14:57;;;;;;;7.35;5.22;;;4.30;64.80;;;;;;5074121;28;20104;-70
2023/01/29 23:17:23;;;;;;;7.15;5.38;;;4.30;64.70;;;;;;5074780;28;20029;-69
2023/01/29 23:19:49;;;;;;;6.68;4.82;;;4.30;64.70;;;;;;5073052;28;20033;-70
2023/01/29 23:22:14;;;;;;;6.30;5.10;;;4.30;64.70;;;;;;5072852;28;20118;-69
2023/01/29 23:24:40;;;;;;;7.97;5.60;;;4.30;64.70;;;;;;5074143;28;20028;-69
2023/01/29 23:27:14;;;;;;;7.10;5.35;;;4.30;65.30;;;;;;5073970;28;20024;-69
2023/01/29 23:29:45;;;;;;;7.60;5.40;;;4.30;64.70;;;;;;5073109;28;20036;-69
2023/01/29 23:32:15;;;;;;;6.60;4.88;;;4.30;64.70;;;;;;5072802;28;20559;-69
2023/01/29 23:34:40;;;;;;;7.22;5.22;;;4.40;64.70;;;;;;5072836;28;20070;-69
2023/01/29 23:37:06;;;;;;;7.20;5.03;;;4.40;64.70;;;;;;5073801;28;20416;-69
2023/01/29 23:39:32;;;;;;;6.95;5.47;;;4.30;64.60;;;;;;5074047;28;20066;-70
2023/01/29 23:41:58;;;;;;;6.97;5.28;;;4.30;64.60;;;;;;5074193;28;20103;-68
2023/01/29 23:44:24;;;;;;;7.07;5.13;;;4.30;64.60;;;;;;5073773;28;20078;-70
2023/01/29 23:46:50;;;;;;;7.10;5.18;;;4.40;64.60;;;;;;5073817;28;20382;-69
2023/01/29 23:49:15;;;;;;;6.60;5.10;;;4.40;64.60;;;;;;5073751;28;20405;-69
2023/01/29 23:51:41;;;;;;;7.88;5.20;;;4.40;64.60;;;;;;5073348;28;20447;-68
2023/01/29 23:54:07;;;;;;;7.38;5.50;;;4.30;64.50;;;;;;5072626;28;20031;-69
2023/01/29 23:56:32;;;;;;;6.75;5.18;;;4.40;64.60;;;;;;5073831;28;20025;-70
2023/01/29 23:58:58;;;;;;;6.28;4.78;;;4.30;64.50;;;;;;5073890;28;20108;-69
